Time;durP1;ratioP1;P1;durP2;ratioP2;P2;SDS_P1;SDS_P2;PMS_P1;PMS_P2;Temp;Humidity;BMP_temperature;BMP_pressure;BME280_temperature;BME280_humidity;BME280_pressure;Samples;Min_cycle;Max_cycle;Signal;HPM_P1;HPM_P2
2023/12/11 00:01:59;;;;;;;;;;;1.50;99.90;;;;;;5038918;28;20396;-60
2023/12/11 00:04:26;;;;;;;;;;;1.50;99.90;;;;;;5041343;28;19991;-61
2023/12/11 00:06:54;;;;;;;;;;;1.50;99.90;;;;;;5041268;28;19925;-59
2023/12/11 00:09:21;;;;;;;;;;;1.40;99.90;;;;;;5040136;28;20840;-61
2023/12/11 00:11:48;;;;;;;;;;;1.40;99.90;;;;;;5041481;28;19932;-62
2023/12/11 00:14:14;;;;;;;;;;;1.50;99.90;;;;;;5038407;28;20053;-59
2023/12/11 00:16:43;;;;;;;;;;;1.50;99.90;;;;;;5041916;28;19929;-61
2023/12/11 00:19:10;;;;;;;;;;;1.40;99.90;;;;;;5036248;28;19925;-60
2023/12/11 00:21:38;;;;;;;;;;;1.40;99.90;;;;;;5042733;28;19932;-61
2023/12/11 00:24:06;;;;;;;;;;;1.40;99.90;;;;;;5037618;28;19924;-61
2023/12/11 00:26:33;;;;;;;;;;;1.40;99.90;;;;;;5037969;28;20306;-65
2023/12/11 00:28:59;;;;;;;;;;;1.40;99.90;;;;;;5041116;28;20385;-62
2023/12/11 00:31:26;;;;;;;;;;;1.40;99.90;;;;;;5036649;28;19924;-61
2023/12/11 00:33:53;;;;;;;;;;;1.40;99.90;;;;;;5037202;28;20018;-70
2023/12/11 00:36:20;;;;;;;;;;;1.30;99.90;;;;;;5039529;28;19929;-60
2023/12/11 00:38:47;;;;;;;;;;;1.30;99.90;;;;;;5025856;28;20326;-61
2023/12/11 00:41:17;;;;;;;;;;;1.30;99.90;;;;;;5040642;28;19932;-62
2023/12/11 00:43:44;;;;;;;;;;;1.20;99.90;;;;;;5035962;28;19952;-62
2023/12/11 00:46:16;;;;;;;;;;;1.30;99.90;;;;;;5035078;28;19925;-59
2023/12/11 00:48:43;;;;;;;;;;;1.20;99.90;;;;;;5037392;28;20408;-60
2023/12/11 00:51:16;;;;;;;;;;;1.20;99.90;;;;;;5038093;28;20019;-63
2023/12/11 00:53:44;;;;;;;;;;;1.20;99.90;;;;;;5036922;28;19968;-62
2023/12/11 00:56:11;;;;;;;;;;;1.20;99.90;;;;;;5037430;28;19936;-62
2023/12/11 00:58:37;;;;;;;;;;;1.20;99.90;;;;;;5039391;28;20015;-60
2023/12/11 01:01:04;;;;;;;;;;;1.20;99.90;;;;;;5043847;28;20552;-64
2023/12/11 01:03:31;;;;;;;;;;;1.20;99.90;;;;;;5041030;28;20500;-64
2023/12/11 01:05:58;;;;;;;;;;;1.20;99.90;;;;;;5033140;28;19929;-60
2023/12/11 01:08:30;;;;;;;;;;;1.10;99.90;;;;;;5040034;28;20024;-60
2023/12/11 01:10:57;;;;;;;;;;;1.10;99.90;;;;;;5041659;28;20003;-64
2023/12/11 01:13:24;;;;;;;;;;;1.10;99.90;;;;;;5040156;28;19924;-63
2023/12/11 01:15:51;;;;;;;;;;;1.10;99.90;;;;;;5039744;28;19964;-61
2023/12/11 01:18:18;;;;;;;;;;;1.10;99.90;;;;;;5041014;28;19983;-63
2023/12/11 01:20:45;;;;;;;;;;;1.10;99.90;;;;;;5039528;28;20309;-59
2023/12/11 01:23:11;;;;;;;;;;;1.10;99.90;;;;;;5034329;28;19925;-60
2023/12/11 01:25:38;;;;;;;;;;;1.10;99.90;;;;;;5039693;28;19981;-61
2023/12/11 01:28:06;;;;;;;;;;;1.10;99.90;;;;;;5041481;28;19979;-67
2023/12/11 01:30:33;;;;;;;;;;;1.10;99.90;;;;;;5042661;28;20019;-61
2023/12/11 01:33:01;;;;;;;;;;;1.10;99.90;;;;;;5037148;28;19929;-63
2023/12/11 01:35:28;;;;;;;;;;;1.10;99.90;;;;;;5038273;28;19925;-60
2023/12/11 01:37:55;;;;;;;;;;;1.10;99.90;;;;;;5042734;28;19956;-64
2023/12/11 01:40:21;;;;;;;;;;;1.10;99.90;;;;;;5041112;28;20388;-62
2023/12/11 01:42:49;;;;;;;;;;;1.10;99.90;;;;;;5042548;28;20503;-60
2023/12/11 01:45:17;;;;;;;;;;;1.10;99.90;;;;;;5040237;28;20351;-66
2023/12/11 01:47:44;;;;;;;;;;;1.10;99.90;;;;;;5043124;28;20297;-60
2023/12/11 01:50:12;;;;;;;;;;;1.10;99.90;;;;;;5037460;28;19929;-63
2023/12/11 01:52:39;;;;;;;;;;;1.10;99.90;;;;;;5042923;28;19975;-59
2023/12/11 01:55:06;;;;;;;;;;;1.10;99.90;;;;;;5033376;28;19929;-63
2023/12/11 01:57:34;;;;;;;;;;;1.10;99.90;;;;;;5042652;28;19929;-59
2023/12/11 02:00:04;;;;;;;;;;;1.10;99.90;;;;;;5041658;28;19929;-64
2023/12/11 02:02:31;;;;;;;;;;;1.10;99.90;;;;;;5042530;28;19933;-61
2023/12/11 02:04:58;;;;;;;;;;;1.10;99.90;;;;;;5042753;28;20011;-60
2023/12/11 02:07:25;;;;;;;;;;;1.10;99.90;;;;;;5038226;28;19929;-60
2023/12/11 02:09:52;;;;;;;;;;;1.10;99.90;;;;;;5042942;28;19929;-65
2023/12/11 02:12:19;;;;;;;;;;;1.00;99.90;;;;;;5040088;28;19935;-59
2023/12/11 02:14:46;;;;;;;;;;;1.00;99.90;;;;;;5043232;28;20093;-60
2023/12/11 02:17:13;;;;;;;;;;;1.00;99.90;;;;;;5034654;28;19936;-62
2023/12/11 02:19:40;;;;;;;;;;;1.00;99.90;;;;;;5042231;28;19982;-65
2023/12/11 02:22:07;;;;;;;;;;;1.00;99.90;;;;;;5040854;28;20322;-63
2023/12/11 02:24:38;;;;;;;;;;;1.10;99.90;;;;;;5040244;28;19929;-62
2023/12/11 02:27:05;;;;;;;;;;;1.10;99.90;;;;;;5042988;28;19936;-64
2023/12/11 02:29:32;;;;;;;;;;;1.10;99.90;;;;;;5039588;28;19929;-60
2023/12/11 02:31:58;;;;;;;;;;;1.10;99.90;;;;;;5041358;28;19925;-62
2023/12/11 02:34:25;;;;;;;;;;;1.10;99.90;;;;;;5039585;28;20622;-61
2023/12/11 02:36:52;;;;;;;;;;;1.00;99.90;;;;;;5037403;28;19964;-60
2023/12/11 02:39:19;;;;;;;;;;;1.10;99.90;;;;;;5041272;28;19929;-61
2023/12/11 02:41:46;;;;;;;;;;;1.10;99.90;;;;;;5039107;28;20019;-63
2023/12/11 02:44:13;;;;;;;;;;;1.10;99.90;;;;;;5041224;28;20251;-62
2023/12/11 02:46:39;;;;;;;;;;;1.10;99.90;;;;;;5036860;28;20392;-60
2023/12/11 02:49:06;;;;;;;;;;;1.00;99.90;;;;;;5042344;28;19971;-66
2023/12/11 02:51:33;;;;;;;;;;;1.00;99.90;;;;;;5042140;28;19925;-62
2023/12/11 02:54:00;;;;;;;;;;;1.10;99.90;;;;;;5038535;28;20026;-59
2023/12/11 02:56:27;;;;;;;;;;;1.10;99.90;;;;;;5040130;28;19929;-65
2023/12/11 02:58:54;;;;;;;;;;;1.10;99.90;;;;;;5041981;28;19943;-62
2023/12/11 03:01:20;;;;;;;;;;;1.10;99.90;;;;;;5033994;28;19925;-60
2023/12/11 03:03:47;;;;;;;;;;;1.10;99.90;;;;;;5036503;28;20588;-62
2023/12/11 03:06:20;;;;;;;;;;;1.10;99.90;;;;;;5039344;28;19987;-61
2023/12/11 03:08:47;;;;;;;;;;;1.00;99.90;;;;;;5042948;28;19928;-61
2023/12/11 03:11:14;;;;;;;;;;;1.00;99.90;;;;;;5037893;28;19968;-63
2023/12/11 03:13:41;;;;;;;;;;;1.00;99.90;;;;;;5036661;28;19964;-60
2023/12/11 03:16:12;;;;;;;;;;;1.00;99.90;;;;;;5040888;28;19959;-71
2023/12/11 03:18:40;;;;;;;;;;;1.00;99.90;;;;;;5037906;28;19932;-63
2023/12/11 03:21:07;;;;;;;;;;;1.00;99.90;;;;;;5039853;28;19925;-63
2023/12/11 03:23:33;;;;;;;;;;;1.00;99.90;;;;;;5039038;28;19929;-61
2023/12/11 03:26:00;;;;;;;;;;;1.00;99.90;;;;;;5036720;28;19965;-60
2023/12/11 03:28:28;;;;;;;;;;;1.00;99.90;;;;;;5034728;28;20533;-61
2023/12/11 03:30:55;;;;;;;;;;;1.00;99.90;;;;;;5042825;28;20035;-60
2023/12/11 03:33:21;;;;;;;;;;;1.00;99.90;;;;;;5039353;28;19933;-60
2023/12/11 03:35:48;;;;;;;;;;;1.00;99.90;;;;;;5044909;28;19929;-61
2023/12/11 03:38:15;;;;;;;;;;;1.00;99.90;;;;;;5041407;28;19929;-68
2023/12/11 03:40:42;;;;;;;;;;;1.00;99.90;;;;;;5039823;28;20382;-60
2023/12/11 03:43:10;;;;;;;;;;;1.00;99.90;;;;;;5039250;28;19994;-63
2023/12/11 03:45:36;;;;;;;;;;;1.00;99.90;;;;;;5040699;28;19928;-65
2023/12/11 03:48:03;;;;;;;;;;;1.00;99.90;;;;;;5035594;28;19936;-63
2023/12/11 03:50:31;;;;;;;;;;;1.00;99.90;;;;;;5036715;28;19936;-59
2023/12/11 03:52:57;;;;;;;;;;;1.00;99.90;;;;;;5036798;28;19964;-65
2023/12/11 03:55:24;;;;;;;;;;;1.00;99.90;;;;;;5037056;28;20664;-60
2023/12/11 03:57:51;;;;;;;;;;;1.00;99.90;;;;;;5038310;28;19932;-61
2023/12/11 04:00:18;;;;;;;;;;;1.00;99.90;;;;;;5041178;28;20412;-60
2023/12/11 04:02:44;;;;;;;;;;;1.00;99.90;;;;;;5039392;28;19929;-61
2023/12/11 04:05:12;;;;;;;;;;;1.00;99.90;;;;;;5040938;28;19931;-62
2023/12/11 04:07:39;;;;;;;;;;;0.90;99.90;;;;;;5034978;28;19976;-60
2023/12/11 04:10:06;;;;;;;;;;;1.00;99.90;;;;;;5034843;28;19936;-65
2023/12/11 04:12:33;;;;;;;;;;;1.00;99.90;;;;;;5037201;28;20306;-60
2023/12/11 04:14:59;;;;;;;;;;;0.90;99.90;;;;;;5033016;28;19975;-60
2023/12/11 04:17:26;;;;;;;;;;;0.90;99.90;;;;;;5033799;28;19991;-62
2023/12/11 04:19:53;;;;;;;;;;;0.90;99.90;;;;;;5041668;28;19924;-61
2023/12/11 04:22:20;;;;;;;;;;;0.90;99.90;;;;;;5039778;28;20860;-60
2023/12/11 04:24:47;;;;;;;;;;;0.90;99.90;;;;;;5040018;28;19998;-64
2023/12/11 04:27:14;;;;;;;;;;;0.90;99.90;;;;;;5037039;28;19932;-64
2023/12/11 04:29:41;;;;;;;;;;;0.90;99.90;;;;;;5036687;28;19929;-65
2023/12/11 04:32:08;;;;;;;;;;;0.90;99.90;;;;;;5038979;28;19929;-67
2023/12/11 04:34:35;;;;;;;;;;;1.00;99.90;;;;;;5039615;28;19935;-62
2023/12/11 04:37:02;;;;;;;;;;;1.00;99.90;;;;;;5036013;28;20680;-61
2023/12/11 04:39:28;;;;;;;;;;;1.00;99.90;;;;;;5039105;28;19940;-61
2023/12/11 04:41:55;;;;;;;;;;;1.00;99.90;;;;;;5038879;28;19967;-65
2023/12/11 04:44:22;;;;;;;;;;;1.00;99.90;;;;;;5038176;28;19929;-59
2023/12/11 04:46:49;;;;;;;;;;;1.00;99.90;;;;;;5038146;28;19972;-61
2023/12/11 04:49:16;;;;;;;;;;;1.00;99.90;;;;;;5037962;28;19982;-64
2023/12/11 04:51:43;;;;;;;;;;;1.00;99.90;;;;;;5041593;28;19963;-60
2023/12/11 04:54:09;;;;;;;;;;;1.00;99.90;;;;;;5034094;28;19936;-62
2023/12/11 04:56:36;;;;;;;;;;;1.00;99.90;;;;;;5041724;28;19932;-62
2023/12/11 04:59:03;;;;;;;;;;;1.00;99.90;;;;;;5039349;28;19940;-61
2023/12/11 05:01:30;;;;;;;;;;;1.00;99.90;;;;;;5038406;28;19936;-66
2023/12/11 05:03:57;;;;;;;;;;;1.00;99.90;;;;;;5040223;28;19936;-63
2023/12/11 05:06:23;;;;;;;;;;;1.00;99.90;;;;;;5038391;28;19933;-64
2023/12/11 05:08:50;;;;;;;;;;;1.00;99.90;;;;;;5037895;28;19929;-61
2023/12/11 05:11:17;;;;;;;;;;;1.00;99.90;;;;;;5044013;28;19968;-70
2023/12/11 05:13:44;;;;;;;;;;;1.00;99.90;;;;;;5043996;28;19929;-60
2023/12/11 05:16:11;;;;;;;;;;;1.00;99.90;;;;;;5043737;28;20259;-66
2023/12/11 05:18:39;;;;;;;;;;;1.00;99.90;;;;;;5041671;28;19971;-63
2023/12/11 05:21:07;;;;;;;;;;;1.00;99.90;;;;;;5041377;28;20324;-62
2023/12/11 05:23:34;;;;;;;;;;;1.00;99.90;;;;;;5046534;28;20511;-62
2023/12/11 05:26:01;;;;;;;;;;;1.00;99.90;;;;;;5039064;28;20408;-63
2023/12/11 05:28:28;;;;;;;;;;;1.00;99.90;;;;;;5043607;28;19933;-61
2023/12/11 05:30:54;;;;;;;;;;;1.00;99.90;;;;;;5046584;28;20623;-61
2023/12/11 05:33:21;;;;;;;;;;;1.00;99.90;;;;;;5043118;28;20727;-64
2023/12/11 05:35:48;;;;;;;;;;;1.00;99.90;;;;;;5040197;28;19929;-59
2023/12/11 05:38:15;;;;;;;;;;;1.00;99.90;;;;;;5044473;28;20019;-67
2023/12/11 05:40:42;;;;;;;;;;;1.00;99.90;;;;;;5041032;28;19928;-69
2023/12/11 05:43:09;;;;;;;;;;;1.00;99.90;;;;;;5044959;28;20392;-65
2023/12/11 05:45:36;;;;;;;;;;;1.00;99.90;;;;;;5034402;28;20051;-62
2023/12/11 05:48:03;;;;;;;;;;;1.00;99.90;;;;;;5041809;28;19978;-66
2023/12/11 05:50:30;;;;;;;;;;;1.00;99.90;;;;;;5044257;28;19983;-61
2023/12/11 05:53:00;;;;;;;;;;;1.00;99.90;;;;;;5035804;28;19929;-62
2023/12/11 05:55:27;;;;;;;;;;;1.00;99.90;;;;;;5037743;28;20297;-60
2023/12/11 05:57:53;;;;;;;;;;;1.00;99.90;;;;;;5042643;28;19929;-64
2023/12/11 06:00:20;;;;;;;;;;;1.00;99.90;;;;;;5042481;28;19933;-65
2023/12/11 06:02:47;;;;;;;;;;;1.00;99.90;;;;;;5042797;28;19925;-63
2023/12/11 06:05:14;;;;;;;;;;;1.00;99.90;;;;;;5039456;28;19933;-62
2023/12/11 06:07:41;;;;;;;;;;;1.00;99.90;;;;;;5036977;28;20015;-65
2023/12/11 06:10:08;;;;;;;;;;;1.00;99.90;;;;;;5039148;28;19972;-63
2023/12/11 06:12:35;;;;;;;;;;;1.00;99.90;;;;;;5036487;28;19951;-60
2023/12/11 06:15:02;;;;;;;;;;;1.00;99.90;;;;;;5042512;28;19928;-65
2023/12/11 06:17:29;;;;;;;;;;;1.00;99.90;;;;;;5042664;28;20010;-63
2023/12/11 06:19:57;;;;;;;;;;;1.00;99.90;;;;;;5039375;28;19932;-62
2023/12/11 06:22:24;;;;;;;;;;;1.00;99.90;;;;;;5041711;28;20035;-59
2023/12/11 06:24:51;;;;;;;;;;;1.10;99.90;;;;;;5042750;28;19924;-66
2023/12/11 06:27:17;;;;;;;;;;;1.10;99.90;;;;;;5043286;28;20633;-64
2023/12/11 06:29:44;;;;;;;;;;;1.10;99.90;;;;;;5043469;28;20692;-66
2023/12/11 06:32:11;;;;;;;;;;;1.00;99.90;;;;;;5039226;28;19948;-65
2023/12/11 06:34:38;;;;;;;;;;;1.10;99.90;;;;;;5033803;28;19929;-62
2023/12/11 06:37:05;;;;;;;;;;;1.00;99.90;;;;;;5036304;28;19936;-65
2023/12/11 06:39:32;;;;;;;;;;;1.10;99.90;;;;;;5039606;28;19925;-60
2023/12/11 06:41:59;;;;;;;;;;;1.00;99.90;;;;;;5040480;28;20020;-62
2023/12/11 06:44:26;;;;;;;;;;;1.00;99.90;;;;;;5040388;28;19928;-64
2023/12/11 06:46:53;;;;;;;;;;;1.10;99.90;;;;;;5037026;28;20381;-70
2023/12/11 06:49:20;;;;;;;;;;;1.10;99.90;;;;;;5040907;28;19929;-61
2023/12/11 06:51:48;;;;;;;;;;;1.00;99.90;;;;;;5040346;28;19929;-62
2023/12/11 06:54:15;;;;;;;;;;;1.10;99.90;;;;;;5036325;28;20036;-63
2023/12/11 06:56:42;;;;;;;;;;;1.10;99.90;;;;;;5034519;28;19933;-62
2023/12/11 06:59:09;;;;;;;;;;;1.10;99.90;;;;;;5036959;28;19925;-60
2023/12/11 07:01:35;;;;;;;;;;;1.10;99.90;;;;;;5033706;28;19975;-64
2023/12/11 07:04:03;;;;;;;;;;;1.00;99.90;;;;;;5038799;28;19928;-61
2023/12/11 07:06:30;;;;;;;;;;;1.00;99.90;;;;;;5039292;28;19933;-60
2023/12/11 07:08:57;;;;;;;;;;;1.10;99.90;;;;;;5038972;28;20443;-64
2023/12/11 07:11:24;;;;;;;;;;;1.10;99.90;;;;;;5039373;28;20415;-66
2023/12/11 07:13:52;;;;;;;;;;;1.10;99.90;;;;;;5041454;28;19967;-61
2023/12/11 07:16:19;;;;;;;;;;;1.10;99.90;;;;;;5039138;28;19933;-63
2023/12/11 07:18:46;;;;;;;;;;;1.10;99.90;;;;;;5042045;28;19925;-60
2023/12/11 07:21:13;;;;;;;;;;;1.10;99.90;;;;;;5039065;28;20014;-61
2023/12/11 07:23:40;;;;;;;;;;;1.10;99.90;;;;;;5032683;28;19929;-63
2023/12/11 07:26:09;;;;;;;;;;;1.10;99.90;;;;;;5041875;28;19929;-63
2023/12/11 07:28:36;;;;;;;;;;;1.10;99.90;;;;;;5041941;28;19925;-64
2023/12/11 07:31:03;;;;;;;;;;;1.10;99.90;;;;;;5029127;28;20027;-64
2023/12/11 07:33:31;;;;;;;;;;;1.10;99.90;;;;;;5042708;28;20709;-61
2023/12/11 07:35:58;;;;;;;;;;;1.10;99.90;;;;;;5040207;28;20648;-64
2023/12/11 07:38:25;;;;;;;;;;;1.10;99.90;;;;;;5042170;28;19928;-68
2023/12/11 07:40:52;;;;;;;;;;;1.10;99.90;;;;;;5041960;28;19929;-67
2023/12/11 07:43:19;;;;;;;;;;;1.10;99.90;;;;;;5038203;28;19933;-66
2023/12/11 07:45:47;;;;;;;;;;;1.10;99.90;;;;;;5032242;28;19982;-63
2023/12/11 07:48:14;;;;;;;;;;;1.10;99.90;;;;;;5035966;28;20515;-69
2023/12/11 07:50:41;;;;;;;;;;;1.10;99.90;;;;;;5044321;28;19928;-60
2023/12/11 07:53:07;;;;;;;;;;;1.10;99.90;;;;;;5037222;28;20592;-63
2023/12/11 07:55:35;;;;;;;;;;;1.10;99.90;;;;;;5037856;28;21024;-62
2023/12/11 07:58:06;;;;;;;;;;;1.10;99.90;;;;;;5037917;28;20432;-67
2023/12/11 08:00:33;;;;;;;;;;;1.10;99.90;;;;;;5042980;28;19933;-69
2023/12/11 08:03:00;;;;;;;;;;;1.10;99.90;;;;;;5035672;28;19932;-63
2023/12/11 08:05:27;;;;;;;;;;;1.10;99.90;;;;;;5037153;28;19925;-62
2023/12/11 08:07:54;;;;;;;;;;;1.10;99.90;;;;;;5040353;28;19929;-64
2023/12/11 08:10:21;;;;;;;;;;;1.10;99.90;;;;;;5035717;28;19969;-62
2023/12/11 08:12:50;;;;;;;;;;;1.00;99.90;;;;;;5040619;28;20572;-63
2023/12/11 08:15:16;;;;;;;;;;;1.00;99.90;;;;;;5028103;28;20306;-67
2023/12/11 08:17:43;;;;;;;;;;;1.00;99.90;;;;;;5040603;28;20313;-60
2023/12/11 08:20:10;;;;;;;;;;;1.00;99.90;;;;;;5040871;28;19929;-69
2023/12/11 08:22:39;;;;;;;;;;;1.00;99.90;;;;;;5039369;28;20430;-60
2023/12/11 08:25:06;;;;;;;;;;;1.10;99.90;;;;;;5041634;28;19933;-64
2023/12/11 08:27:35;;;;;;;;;;;1.00;99.90;;;;;;5043933;28;20239;-61
2023/12/11 08:30:02;;;;;;;;;;;1.00;99.90;;;;;;5039617;28;20008;-62
2023/12/11 08:32:28;;;;;;;;;;;1.10;99.90;;;;;;5035599;28;20022;-60
2023/12/11 08:34:55;;;;;;;;;;;1.00;99.90;;;;;;5035854;28;20043;-60
2023/12/11 08:37:24;;;;;;;;;;;1.10;99.90;;;;;;5038342;28;20871;-60
2023/12/11 08:39:51;;;;;;;;;;;1.10;99.90;;;;;;5037205;28;19925;-61
2023/12/11 08:42:18;;;;;;;;;;;1.10;99.90;;;;;;5040704;28;19974;-68
2023/12/11 08:44:45;;;;;;;;;;;1.00;99.90;;;;;;5038691;28;19952;-62
2023/12/11 08:47:12;;;;;;;;;;;1.00;99.90;;;;;;5038896;28;19925;-62
2023/12/11 08:49:38;;;;;;;;;;;1.00;99.90;;;;;;5040354;28;19999;-63
2023/12/11 08:52:05;;;;;;;;;;;1.10;99.90;;;;;;5034538;28;19983;-64
2023/12/11 08:54:33;;;;;;;;;;;1.00;99.90;;;;;;5038039;28;19924;-61
2023/12/11 08:57:00;;;;;;;;;;;1.00;99.90;;;;;;5041878;28;19933;-62
2023/12/11 08:59:26;;;;;;;;;;;1.10;99.90;;;;;;5038467;28;19924;-63
2023/12/11 09:01:53;;;;;;;;;;;1.10;99.90;;;;;;5039288;28;19979;-63
2023/12/11 09:04:20;;;;;;;;;;;1.10;99.90;;;;;;5037879;28;19931;-61
2023/12/11 09:06:48;;;;;;;;;;;1.10;99.90;;;;;;5038622;28;19925;-65
2023/12/11 09:09:14;;;;;;;;;;;1.10;99.90;;;;;;5036499;28;19933;-63
2023/12/11 09:11:41;;;;;;;;;;;1.10;99.90;;;;;;5039668;28;20393;-63
2023/12/11 09:14:08;;;;;;;;;;;1.10;99.90;;;;;;5038835;28;19976;-68
2023/12/11 09:16:35;;;;;;;;;;;1.00;99.90;;;;;;5042447;28;19924;-61
2023/12/11 09:19:02;;;;;;;;;;;1.00;99.90;;;;;;5037460;28;19951;-60
2023/12/11 09:21:29;;;;;;;;;;;1.00;99.90;;;;;;5035962;28;20293;-64
2023/12/11 09:23:55;;;;;;;;;;;1.10;99.90;;;;;;5037826;28;20656;-63
2023/12/11 09:26:22;;;;;;;;;;;1.10;99.90;;;;;;5039174;28;19929;-60
2023/12/11 09:28:49;;;;;;;;;;;1.10;99.90;;;;;;5041858;28;19960;-65
2023/12/11 09:31:19;;;;;;;;;;;1.00;99.90;;;;;;5034845;28;20482;-60
2023/12/11 09:33:46;;;;;;;;;;;1.10;99.90;;;;;;5037939;28;20302;-59
2023/12/11 09:36:13;;;;;;;;;;;1.10;99.90;;;;;;5039714;28;19928;-66
2023/12/11 09:38:42;;;;;;;;;;;1.00;99.90;;;;;;5040447;28;19959;-63
2023/12/11 09:41:09;;;;;;;;;;;1.00;99.90;;;;;;5034598;28;19929;-66
2023/12/11 09:43:36;;;;;;;;;;;1.10;99.90;;;;;;5044020;28;20555;-67
2023/12/11 09:46:06;;;;;;;;;;;1.00;99.90;;;;;;5035441;28;20032;-62
2023/12/11 09:48:33;;;;;;;;;;;1.00;99.90;;;;;;5038672;28;19929;-60
2023/12/11 09:51:00;;;;;;;;;;;1.00;99.90;;;;;;5036777;28;20567;-63
2023/12/11 09:53:29;;;;;;;;;;;1.00;99.90;;;;;;5036209;28;20020;-61
2023/12/11 09:55:57;;;;;;;;;;;1.10;99.90;;;;;;5039951;28;19941;-60
2023/12/11 09:58:24;;;;;;;;;;;1.10;99.90;;;;;;5029603;28;20313;-66
2023/12/11 10:00:51;;;;;;;;;;;1.10;99.90;;;;;;5030993;28;19929;-61
2023/12/11 10:03:18;;;;;;;;;;;1.10;99.90;;;;;;5038597;28;20019;-64
2023/12/11 10:05:46;;;;;;;;;;;1.10;99.90;;;;;;5036563;28;20559;-59
2023/12/11 10:08:15;;;;;;;;;;;1.10;99.90;;;;;;5040350;28;19929;-61
2023/12/11 10:10:42;;;;;;;;;;;1.00;99.90;;;;;;5042004;28;19928;-63
2023/12/11 10:13:10;;;;;;;;;;;1.00;99.90;;;;;;5038319;28;20025;-59
2023/12/11 10:15:37;;;;;;;;;;;1.10;99.90;;;;;;5042488;28;19976;-62
2023/12/11 10:18:05;;;;;;;;;;;1.00;99.90;;;;;;5042739;28;20027;-62
2023/12/11 10:20:33;;;;;;;;;;;1.00;99.90;;;;;;5023221;28;19941;-59
2023/12/11 10:23:16;;;;;;;;;;;1.10;99.90;;;;;;5042610;28;19932;-59
2023/12/11 10:25:45;;;;;;;;;;;1.10;99.90;;;;;;5039015;28;20319;-60
2023/12/11 10:28:12;;;;;;;;;;;1.10;99.90;;;;;;5042376;28;19929;-67
2023/12/11 10:30:53;;;;;;;;;;;1.10;99.90;;;;;;5043079;28;19929;-62
2023/12/11 10:33:21;;;;;;;;;;;1.10;99.90;;;;;;5034627;28;19957;-61
2023/12/11 10:35:48;;;;;;;;;;;1.10;99.90;;;;;;5039874;28;19975;-60
2023/12/11 10:38:25;;;;;;;;;;;1.10;99.90;;;;;;5039562;28;19983;-64
2023/12/11 10:40:53;;;;;;;;;;;1.10;99.90;;;;;;5042398;28;19928;-66
2023/12/11 10:43:20;;;;;;;;;;;1.10;99.90;;;;;;5041724;28;19963;-61
2023/12/11 10:45:47;;;;;;;;;;;1.10;99.90;;;;;;5045442;28;19933;-60
2023/12/11 10:48:19;;;;;;;;;;;1.10;99.90;;;;;;5039829;28;20024;-59
2023/12/11 10:50:47;;;;;;;;;;;1.10;99.90;;;;;;5036517;28;20024;-59
2023/12/11 10:53:15;;;;;;;;;;;1.10;99.90;;;;;;5035490;28;19932;-66
2023/12/11 10:55:42;;;;;;;;;;;1.10;99.90;;;;;;5034811;28;19924;-63
2023/12/11 10:58:10;;;;;;;;;;;1.10;99.90;;;;;;5042029;28;20366;-63
2023/12/11 11:00:37;;;;;;;;;;;1.10;99.90;;;;;;5039391;28;19951;-60
2023/12/11 11:03:06;;;;;;;;;;;1.10;99.90;;;;;;5037703;28;19929;-60
2023/12/11 11:05:33;;;;;;;;;;;1.10;99.90;;;;;;5041067;28;19924;-60
2023/12/11 11:08:00;;;;;;;;;;;1.10;99.90;;;;;;5035105;28;19932;-60
2023/12/11 11:10:33;;;;;;;;;;;1.10;99.90;;;;;;5039961;28;19929;-63
2023/12/11 11:13:05;;;;;;;;;;;1.10;99.90;;;;;;5034242;28;20357;-61
2023/12/11 11:15:32;;;;;;;;;;;1.10;99.90;;;;;;5032558;28;19974;-64
2023/12/11 11:17:59;;;;;;;;;;;1.00;99.90;;;;;;5036089;28;20394;-61
2023/12/11 11:20:30;;;;;;;;;;;1.00;99.90;;;;;;5040282;28;19968;-59
2023/12/11 11:23:18;;;;;;;;;;;1.00;99.90;;;;;;5033995;28;19936;-61
2023/12/11 11:25:51;;;;;;;;;;;1.00;99.90;;;;;;5034523;28;20689;-60
2023/12/11 11:28:35;;;;;;;;;;;1.00;99.90;;;;;;5043291;28;19932;-59
2023/12/11 11:31:02;;;;;;;;;;;1.00;99.90;;;;;;5039734;28;19959;-61
2023/12/11 11:33:42;;;;;;;;;;;1.00;99.90;;;;;;5037922;28;19971;-62
2023/12/11 11:36:10;;;;;;;;;;;1.00;99.90;;;;;;5032264;28;19967;-64
2023/12/11 11:38:52;;;;;;;;;;;1.00;99.90;;;;;;5038554;28;19933;-61
2023/12/11 11:41:20;;;;;;;;;;;1.00;99.90;;;;;;5035191;28;19982;-65
2023/12/11 11:43:56;;;;;;;;;;;1.00;99.90;;;;;;5036691;28;19935;-59
2023/12/11 11:46:23;;;;;;;;;;;1.00;99.90;;;;;;5041505;28;19924;-62
2023/12/11 11:48:50;;;;;;;;;;;1.00;99.90;;;;;;5038157;28;20847;-59
2023/12/11 11:51:19;;;;;;;;;;;1.00;99.90;;;;;;5040285;28;20006;-60
2023/12/11 11:53:49;;;;;;;;;;;1.00;99.90;;;;;;5037825;28;19986;-59
2023/12/11 11:56:16;;;;;;;;;;;1.00;99.90;;;;;;5032612;28;20232;-60
2023/12/11 11:58:43;;;;;;;;;;;1.10;99.90;;;;;;5040541;28;19936;-63
2023/12/11 12:01:11;;;;;;;;;;;1.00;99.90;;;;;;5041066;28;20678;-64
2023/12/11 12:03:42;;;;;;;;;;;1.10;99.90;;;;;;5033051;28;20386;-59
2023/12/11 12:06:10;;;;;;;;;;;1.10;99.90;;;;;;5035235;28;19925;-59
2023/12/11 12:08:41;;;;;;;;;;;1.10;99.90;;;;;;5040515;28;20406;-59
2023/12/11 12:11:11;;;;;;;;;;;1.00;99.90;;;;;;5031149;28;19932;-61
2023/12/11 12:13:38;;;;;;;;;;;1.10;99.90;;;;;;5037834;28;19939;-63
2023/12/11 12:16:05;;;;;;;;;;;1.00;99.90;;;;;;5038515;28;19929;-66
2023/12/11 12:18:32;;;;;;;;;;;1.00;99.90;;;;;;5037374;28;19925;-64
2023/12/11 12:21:03;;;;;;;;;;;1.00;99.90;;;;;;5040732;28;19951;-65
2023/12/11 12:23:31;;;;;;;;;;;1.00;99.90;;;;;;5039477;28;20075;-69
2023/12/11 12:25:59;;;;;;;;;;;1.00;99.90;;;;;;5038160;28;19960;-61
2023/12/11 12:28:29;;;;;;;;;;;1.00;99.90;;;;;;5035821;28;19939;-62
2023/12/11 12:30:56;;;;;;;;;;;1.00;99.90;;;;;;5036452;28;19928;-65
2023/12/11 12:33:23;;;;;;;;;;;1.00;99.90;;;;;;5037153;28;19929;-64
2023/12/11 12:35:50;;;;;;;;;;;1.00;99.90;;;;;;5037040;28;19952;-61
2023/12/11 12:38:18;;;;;;;;;;;1.00;99.90;;;;;;5037304;28;19948;-66
2023/12/11 12:40:44;;;;;;;;;;;0.90;99.90;;;;;;5038623;28;19924;-67
2023/12/11 12:43:12;;;;;;;;;;;1.00;99.90;;;;;;5038803;28;19924;-64
2023/12/11 12:45:40;;;;;;;;;;;0.90;99.90;;;;;;5035476;28;19979;-63
2023/12/11 12:48:08;;;;;;;;;;;0.90;99.90;;;;;;5038367;28;19963;-61
2023/12/11 12:50:36;;;;;;;;;;;1.00;99.90;;;;;;5038038;28;19929;-61
2023/12/11 12:53:04;;;;;;;;;;;0.90;99.90;;;;;;5027398;28;20073;-60
2023/12/11 12:55:31;;;;;;;;;;;0.90;99.90;;;;;;5031141;28;20051;-62
2023/12/11 12:57:58;;;;;;;;;;;0.90;99.90;;;;;;5036022;28;20510;-66
2023/12/11 13:00:26;;;;;;;;;;;0.90;99.90;;;;;;5035967;28;19925;-63
2023/12/11 13:02:53;;;;;;;;;;;1.00;99.90;;;;;;5037920;28;19936;-61
2023/12/11 13:05:20;;;;;;;;;;;0.90;99.90;;;;;;5023482;28;19929;-60
2023/12/11 13:07:57;;;;;;;;;;;0.90;99.90;;;;;;5038622;28;19957;-61
2023/12/11 13:10:25;;;;;;;;;;;0.90;99.90;;;;;;5033707;28;20334;-61
2023/12/11 13:12:52;;;;;;;;;;;0.90;99.90;;;;;;5030823;28;20028;-63
2023/12/11 13:15:19;;;;;;;;;;;0.90;99.90;;;;;;5038385;28;20389;-63
2023/12/11 13:17:52;;;;;;;;;;;0.90;99.90;;;;;;5030548;28;20410;-62
2023/12/11 13:20:19;;;;;;;;;;;0.90;99.90;;;;;;5038465;28;19980;-61
2023/12/11 13:22:47;;;;;;;;;;;0.90;99.90;;;;;;5037402;28;19925;-62
2023/12/11 13:25:15;;;;;;;;;;;0.90;99.90;;;;;;5036698;28;20008;-67
2023/12/11 13:27:46;;;;;;;;;;;0.90;99.90;;;;;;5041455;28;19925;-62
2023/12/11 13:30:19;;;;;;;;;;;0.90;99.90;;;;;;5039096;28;20416;-67
2023/12/11 13:32:46;;;;;;;;;;;0.80;99.90;;;;;;5041797;28;19932;-65
2023/12/11 13:35:13;;;;;;;;;;;0.80;99.90;;;;;;5038927;28;19925;-64
2023/12/11 13:37:39;;;;;;;;;;;0.80;99.90;;;;;;5038152;28;19929;-62
2023/12/11 13:40:07;;;;;;;;;;;0.80;99.90;;;;;;5040187;28;20432;-66
2023/12/11 13:42:34;;;;;;;;;;;0.80;99.90;;;;;;5041398;28;19925;-61
2023/12/11 13:45:01;;;;;;;;;;;0.80;99.90;;;;;;5040520;28;20010;-68
2023/12/11 13:47:28;;;;;;;;;;;0.80;99.90;;;;;;5042967;28;19932;-65
2023/12/11 13:49:56;;;;;;;;;;;0.80;99.90;;;;;;5040223;28;20375;-64
2023/12/11 13:52:23;;;;;;;;;;;0.80;99.90;;;;;;5042694;28;20023;-63
2023/12/11 13:54:50;;;;;;;;;;;0.80;99.90;;;;;;5037980;28;19968;-63
2023/12/11 13:57:20;;;;;;;;;;;0.80;99.90;;;;;;5044798;28;20371;-63
2023/12/11 13:59:49;;;;;;;;;;;0.80;99.90;;;;;;5020549;28;19987;-69
2023/12/11 14:02:16;;;;;;;;;;;0.80;99.90;;;;;;5036885;28;19933;-66
2023/12/11 14:05:03;;;;;;;;;;;0.80;99.90;;;;;;5039127;28;20029;-61
2023/12/11 14:07:31;;;;;;;;;;;0.80;99.90;;;;;;5043812;28;20438;-70
2023/12/11 14:09:59;;;;;;;;;;;0.80;99.90;;;;;;5043688;28;19955;-67
2023/12/11 14:12:26;;;;;;;;;;;0.80;99.90;;;;;;5041590;28;19928;-61
2023/12/11 14:14:53;;;;;;;;;;;0.70;99.90;;;;;;5042578;28;19933;-63
2023/12/11 14:17:20;;;;;;;;;;;0.80;99.90;;;;;;5038169;28;19928;-65
2023/12/11 14:19:48;;;;;;;;;;;0.80;99.90;;;;;;5038350;28;19928;-61
2023/12/11 14:22:15;;;;;;;;;;;0.80;99.90;;;;;;5033120;28;19925;-65
2023/12/11 14:24:42;;;;;;;;;;;0.70;99.90;;;;;;5039838;28;20359;-61
2023/12/11 14:27:12;;;;;;;;;;;0.80;99.90;;;;;;5039114;28;19932;-66
2023/12/11 14:29:42;;;;;;;;;;;0.70;99.90;;;;;;5039592;28;19979;-63
2023/12/11 14:32:09;;;;;;;;;;;0.70;99.90;;;;;;5040470;28;20019;-70
2023/12/11 14:34:40;;;;;;;;;;;0.70;99.90;;;;;;5035448;28;19936;-61